Latest Coastal Weather Observations for Smithton

IDT60701

Issued at 7:32 pm EST Wednesday 6 May 2026 (issued every 10 minutes, with the page automatically refreshed every 10 minutes)

About coastal observations | Map of coastal stations | Coastal observations for TAS | Marine services | Other Formats
Station Details ID: 091292 Name: SMITHTON AERODROME Lat: -40.83 Lon: 145.08 Height: 7.5 m
Data from the previous 72 hours. | See also: Recent months at Smithton
Date/Time
EST
Wind Sea
Height
m
Swell Vis
km
Cloud Weather Temp
°C
Press
MSL
hPa
Rain since
9am
mm
Dir  Spd
kts
Gust
kts
Height
m
Period
s
Dir
06/07:30pm WSW 11 16 - - - - - - - 8.3 1010.7 5.8
06/07:00pm SW 14 20 - - - - - - - 8.5 1010.5 5.8
06/06:30pm WSW 11 16 - - - - - - - 9.3 1010.7 5.8
06/06:00pm SW 12 19 - - - - - - Rain 9.4 1010.3 5.6
06/05:30pm WSW 15 23 - - - - - - - 9.8 1010.2 4.8
06/05:00pm WSW 14 19 - - - - - - - 9.9 1010.1 4.0
06/04:30pm WSW 15 22 - - - - - - - 10.8 1009.7 2.0
06/04:00pm SW 12 15 - - - - - - - 11.0 1009.8 1.6
06/03:30pm SW 18 27 - - - - - - - 11.5 1009.8 1.2
06/03:22pm WSW 17 27 - - - - - - - 12.1 1009.7 1.2
06/03:00pm W 16 24 - - - - - - Recent precip. 13.3 1009.4 1.0
06/02:30pm WNW 18 23 - - - - - - - 15.3 1009.5 0.6
06/02:00pm WNW 18 24 - - - - - - - 15.9 1010.1 0.6
06/01:30pm WNW 18 24 - - - - - - - 16.0 1010.7 0.6
06/01:00pm WNW 16 21 - - - - - - - 15.3 1011.4 0.6
06/12:30pm WNW 16 21 - - - - - - - 15.9 1011.9 0.6
06/12:17pm WNW 18 28 - - - - - - - 15.4 1012.2 0.6
06/12:00pm WNW 17 24 - - - - - - Recent precip. 15.9 1012.5 0.6
06/11:30am W 12 16 - - - - - - - 14.8 1013.0 0.6
06/11:00am WNW 15 22 - - - - - - - 15.0 1013.4 0.4
06/10:30am WNW 12 15 - - - - - - - 15.0 1013.8 0.4
06/10:00am WNW 14 18 - - - - - - - 14.0 1014.2 0.4
06/09:30am WNW 13 17 - - - - - - - 14.6 1014.5 0.0
06/09:00am WNW 10 13 - - - - - - Rain 13.9 1014.9 3.6
06/08:30am WNW 9 13 - - - - - - - 13.5 1015.0 3.2
06/08:00am WNW 12 16 - - - - - - - 13.4 1015.2 3.2
06/07:30am WNW 7 9 - - - - - - - 12.6 1015.2 2.2
06/07:00am NW 7 8 - - - - - - - 11.9 1015.4 2.2
06/06:30am WNW 8 11 - - - - - - - 12.5 1015.6 2.2
06/06:00am W 11 17 - - - - - - Rain 13.2 1015.9 2.2
06/05:30am WNW 11 14 - - - - - - - 13.4 1015.7 0.8
06/05:00am WNW 11 16 - - - - - - - 13.4 1015.8 0.8
06/04:30am WNW 13 19 - - - - - - - 13.6 1016.0 0.8
06/04:00am WNW 6 8 - - - - - - - 13.0 1016.1 0.6
06/03:30am WNW 9 11 - - - - - - - 13.1 1016.4 0.6
06/03:00am WNW 8 10 - - - - - - - 12.9 1016.7 0.6
06/02:30am WNW 8 11 - - - - - - - 12.6 1017.0 0.6
06/02:00am NW 7 9 - - - - - - - 12.9 1017.3 0.6
06/01:30am WNW 9 12 - - - - - - - 13.0 1017.6 0.2
06/01:00am WNW 5 7 - - - - - - - 12.5 1017.8 0.2
06/12:30am WNW 7 8 - - - - - - - 12.4 1017.9 0.2
06/12:00am WNW 8 10 - - - - - - Recent precip. 12.6 1017.9 0.2
 
Date/Time
EST
Wind Sea
Height
m
Swell Vis
km
Cloud Weather Temp
°C
Press
MSL
hPa
Rain since
9am
mm
Dir  Spd
kts
Gust
kts
Height
m
Period
s
Dir
05/11:30pm NW 7 9 - - - - - - - 12.5 1018.1 0.0
05/11:00pm NW 7 9 - - - - - - - 12.1 1018.4 0.0
05/10:30pm WNW 9 13 - - - - - - - 12.7 1018.6 0.0
05/10:00pm NW 7 9 - - - - - - - 12.9 1018.8 0.0
05/09:30pm NW 7 9 - - - - - - - 12.6 1018.9 0.0
05/09:00pm NW 5 6 - - - - - - - 12.0 1018.9 0.0
05/08:30pm NW 5 6 - - - - - - - 11.7 1018.9 0.0
05/08:00pm CALM 0 0 - - - - - - - 11.1 1019.0 0.0
05/07:30pm CALM 0 4 - - - - - - - 10.8 1019.0 0.0
05/07:00pm CALM 0 0 - - - - - - - 10.2 1018.9 0.0
05/06:30pm NW 3 4 - - - - - - - 9.9 1018.6 0.0
05/06:00pm WNW 5 6 - - - - - - - 10.0 1018.3 0.0
05/05:30pm W 7 7 - - - - - - - 11.1 1017.9 0.0
05/05:00pm WSW 8 10 - - - - - - - 12.3 1017.8 0.0
05/04:30pm WSW 8 11 - - - - - - - 12.9 1017.7 0.0
05/04:00pm WSW 11 16 - - - - - - - 14.2 1017.3 0.0
05/03:30pm WSW 11 14 - - - - - - - 14.9 1017.1 0.0
05/03:00pm WSW 10 15 - - - - - - - 14.5 1016.8 0.0
05/02:30pm SW 14 19 - - - - - - - 13.7 1016.8 0.0
05/02:00pm WSW 14 20 - - - - - - - 14.7 1016.3 0.0
05/01:30pm WSW 13 20 - - - - - - - 14.9 1016.2 0.0
05/01:00pm WSW 15 21 - - - - - - - 14.0 1016.2 0.0
05/12:30pm SW 11 16 - - - - - - - 14.2 1016.2 0.0
05/12:00pm SW 12 17 - - - - - - - 14.3 1016.3 0.0
05/11:30am SW 14 19 - - - - - - - 13.8 1016.3 0.0
05/11:00am SW 15 20 - - - - - - - 13.6 1015.8 0.0
05/10:30am SW 13 19 - - - - - - - 12.9 1015.5 0.0
05/10:00am SW 13 18 - - - - - - - 13.4 1015.2 0.0
05/09:30am WSW 12 16 - - - - - - - 13.0 1014.9 0.0
05/09:00am SW 11 15 - - - - - - - 13.1 1014.7 8.0
05/08:30am SW 10 13 - - - - - - - 12.5 1014.4 8.0
05/08:00am WSW 9 11 - - - - - - - 11.7 1013.9 8.0
05/07:30am SW 10 12 - - - - - - - 11.6 1013.2 7.8
05/07:00am SW 10 14 - - - - - - - 11.2 1012.7 7.8
05/06:30am SW 11 14 - - - - - - - 12.1 1012.1 7.8
05/06:00am WSW 11 17 - - - - - - Recent precip. 12.4 1011.5 7.8
05/05:30am SW 11 15 - - - - - - - 12.6 1011.1 7.8
05/05:00am SW 11 16 - - - - - - - 12.8 1010.5 7.6
05/04:30am SW 13 17 - - - - - - - 12.8 1009.8 7.6
05/04:00am SW 12 15 - - - - - - - 12.7 1009.3 7.6
05/03:30am SW 11 15 - - - - - - - 12.6 1008.8 7.6
05/03:00am SW 10 15 - - - - - - - 12.2 1008.3 7.6
05/02:30am SSW 8 9 - - - - - - - 10.8 1007.9 7.6
05/02:00am SSW 7 8 - - - - - - - 10.7 1007.6 7.6
05/01:30am SSW 8 9 - - - - - - - 11.3 1007.1 7.6
05/01:00am SSW 9 11 - - - - - - - 11.6 1007.0 7.6
05/12:30am S 9 11 - - - - - - - 12.0 1006.4 7.4
05/12:00am SSW 8 10 - - - - - - Rain 12.5 1006.3 7.4
 
Date/Time
EST
Wind Sea
Height
m
Swell Vis
km
Cloud Weather Temp
°C
Press
MSL
hPa
Rain since
9am
mm
Dir  Spd
kts
Gust
kts
Height
m
Period
s
Dir
04/11:30pm SSW 8 9 - - - - - - - 12.7 1006.1 7.0
04/11:00pm S 9 11 - - - - - - - 12.7 1006.1 6.8
04/10:30pm NE 5 6 - - - - - - - 14.2 1006.1 6.8
04/10:00pm NNE 4 7 - - - - - - - 14.1 1006.1 6.8
04/09:30pm N 8 11 - - - - - - - 14.1 1006.1 6.8
04/09:00pm N 7 12 - - - - - - - 15.0 1005.8 6.8
04/08:30pm N 8 11 - - - - - - - 14.5 1005.9 6.8
04/08:00pm N 7 9 - - - - - - - 14.2 1006.1 6.8
04/07:30pm NW 4 6 - - - - - - - 14.1 1006.0 5.2
04/07:00pm N 12 19 - - - - - - - 15.9 1006.0 5.2
04/06:30pm NNE 11 14 - - - - - - - 15.8 1006.1 5.2
04/06:00pm N 11 16 - - - - - - - 15.3 1006.0 5.2
04/05:30pm N 9 12 - - - - - - - 14.8 1006.2 5.2
04/05:00pm N 10 13 - - - - - - - 14.7 1006.2 5.2
04/04:30pm N 10 15 - - - - - - - 14.1 1006.2 5.2
04/04:00pm N 12 16 - - - - - - - 14.8 1006.2 0.6
04/03:30pm N 13 17 - - - - - - - 15.2 1006.3 0.2
04/03:00pm N 13 19 - - - - - - - 15.5 1006.5 0.2
04/02:30pm N 17 22 - - - - - - - 15.4 1006.5 0.2
04/02:00pm N 14 19 - - - - - - - 15.4 1006.7 0.2
04/01:30pm N 15 22 - - - - - - - 15.7 1006.9 0.2
04/01:00pm N 15 20 - - - - - - - 16.2 1007.2 0.2
04/12:30pm N 17 24 - - - - - - - 16.8 1007.6 0.0
04/12:00pm N 17 22 - - - - - - - 17.4 1008.0 0.0
04/11:30am N 13 19 - - - - - - - 16.9 1008.3 0.0
04/11:00am N 15 23 - - - - - - - 16.5 1008.4 0.0
04/10:30am N 15 20 - - - - - - - 16.7 1008.3 0.0
04/10:00am N 15 20 - - - - - - - 16.8 1008.4 0.0
04/09:30am N 13 18 - - - - - - - 16.6 1008.6 0.0
04/09:00am N 13 18 - - - - - - - 16.1 1008.8 22.4
04/08:30am N 11 15 - - - - - - - 15.4 1008.6 22.4
04/08:00am N 10 14 - - - - - - - 14.7 1008.6 22.4
04/07:30am N 10 14 - - - - - - - 13.9 1008.6 22.4
04/07:00am N 9 11 - - - - - - - 13.5 1008.5 22.4
04/06:30am N 6 10 - - - - - - - 12.5 1008.5 22.4
04/06:00am N 3 5 - - - - - - - 9.1 1008.7 22.4
04/05:30am NNW 4 6 - - - - - - - 10.7 1008.6 22.4
04/05:00am N 4 6 - - - - - - - 9.6 1008.7 22.4
04/04:30am N 5 6 - - - - - - - 10.5 1008.6 22.4
04/04:00am N 3 6 - - - - - - - 8.9 1008.7 22.4
04/03:30am E 4 5 - - - - - - - 8.7 1009.0 22.4
04/03:00am ESE 4 5 - - - - - - - 10.0 1009.2 22.4
04/02:30am ENE 4 5 - - - - - - - 11.1 1009.5 22.4
04/02:00am ENE 5 6 - - - - - - - 10.3 1009.7 22.4
04/01:30am E 3 6 - - - - - - - 8.6 1009.8 22.4
04/01:00am ESE 3 4 - - - - - - - 8.1 1009.8 22.4
04/12:30am WNW 2 4 - - - - - - - 8.1 1009.9 22.4
04/12:00am CALM 0 0 - - - - - - - 8.3 1009.8 22.4
 
Date/Time
EST
Wind Sea
Height
m
Swell Vis
km
Cloud Weather Temp
°C
Press
MSL
hPa
Rain since
9am
mm
Dir  Spd
kts
Gust
kts
Height
m
Period
s
Dir
03/11:30pm CALM 0 0 - - - - - - - 7.8 1010.0 22.4
03/11:00pm CALM 0 0 - - - - - - - 7.6 1010.3 22.4
03/10:30pm CALM 0 0 - - - - - - - 8.0 1010.9 22.4
03/10:00pm CALM 0 3 - - - - - - - 7.9 1011.0 22.4
03/09:30pm CALM 0 0 - - - - - - - 7.9 1010.6 22.4
03/09:00pm CALM 0 0 - - - - - - - 8.1 1011.0 22.4
03/08:30pm SSW 3 5 - - - - - - - 8.7 1010.8 22.4
03/08:00pm CALM 0 0 - - - - - - - 8.7 1010.4 22.4

Other formats

Comma delimited format used in spreadsheet applications
http://www.bom.gov.au/fwo/IDT60701/IDT60701.94953.axf

JavaScript Object Notation format (JSON) in row-major order
http://www.bom.gov.au/fwo/IDT60701/IDT60701.94953.json

Data quality

Most of these data are generated automatically and are frequently updated. Quality checks on data are not normally performed. It is possible for incorrect values to appear. Refer to information at About Latest Weather Observations and please check the disclaimer before using these data.